Aroya, Colorado
Current Conditions -  °F | °C
As of 2:55 AM on Monday 20 Oct 2014 (Local Time) from KLIC Reporting Station
Clear Clear  
Wind Chill: 34°   Ceiling: Unl
Heat Index: 38°   Visibility: 10mi
Dew Point: 35°   Wind: 5mph
Humidity: 89%   Direction: 340°NNW
Pressure: 30.19"   Gusts: NA
Location:  38.8543°N, 103.125°W
Report Text: KLIC 200855Z AUTO 34004KT 10SM CLR 03/02 A3019 RMK AO2 SLP177 T00330017 58002
Loading
Personal Weather Stations






























Interactive Weather Map
Tropical Storm Tracking
New forecast layout! Learn more

10-Day Weather Forecast

Advertisements
Track Severe Weather on mobile